Time;durP1;ratioP1;P1;durP2;ratioP2;P2;SDS_P1;SDS_P2;PMS_P1;PMS_P2;Temp;Humidity;BMP_temperature;BMP_pressure;BME280_temperature;BME280_humidity;BME280_pressure;Samples;Min_cycle;Max_cycle;Signal;HPM_P1;HPM_P2
2023/07/18 00:00:36;;;;;;;3.90;3.13;;;;;;;24.77;nan;62276.97;5032598;28;20202;-67
2023/07/18 00:03:03;;;;;;;3.67;2.95;;;;;;;24.84;nan;62222.22;5032377;28;20223;-67
2023/07/18 00:05:29;;;;;;;5.40;3.40;;;;;;;24.91;nan;62301.41;5032520;28;20195;-64
2023/07/18 00:07:55;;;;;;;4.35;3.20;;;;;;;25.09;nan;62297.84;5032614;28;20271;-66
2023/07/18 00:10:21;;;;;;;4.72;3.30;;;;;;;25.00;nan;62355.56;5032219;28;20573;-65
2023/07/18 00:12:47;;;;;;;4.55;3.45;;;;;;;24.92;nan;62216.25;5032541;28;20176;-65
2023/07/18 00:15:13;;;;;;;5.10;3.60;;;;;;;24.91;nan;62285.13;5032308;28;20236;-64
2023/07/18 00:17:40;;;;;;;6.88;3.47;;;;;;;25.03;nan;62277.91;5030855;28;20194;-65
2023/07/18 00:20:11;;;;;;;4.95;3.45;;;;;;;24.92;nan;62184.31;5032493;28;20203;-67
2023/07/18 00:22:36;;;;;;;4.50;3.45;;;;;;;25.06;nan;62263.03;5032480;28;20171;-68
2023/07/18 00:25:02;;;;;;;6.50;3.55;;;;;;;24.85;nan;62223.94;5032384;28;20241;-67
2023/07/18 00:27:28;;;;;;;5.47;3.75;;;;;;;24.91;nan;62303.44;5032027;28;20167;-66
2023/07/18 00:29:57;;;;;;;4.70;3.53;;;;;;;24.79;nan;62185.72;5031967;28;20241;-66
2023/07/18 00:32:23;;;;;;;6.70;3.55;;;;;;;25.00;nan;62191.38;5031742;28;20179;-68
2023/07/18 00:34:49;;;;;;;6.35;3.25;;;;;;;24.89;nan;62293.88;5031845;28;20631;-67
2023/07/18 00:37:15;;;;;;;4.63;3.30;;;;;;;24.67;nan;62184.56;5031975;28;20261;-66
2023/07/18 00:39:41;;;;;;;7.30;3.65;;;;;;;24.52;nan;62218.25;5032039;28;20286;-66
2023/07/18 00:42:07;;;;;;;6.35;3.33;;;;;;;24.85;nan;62174.25;5031768;28;20182;-65
2023/07/18 00:44:32;;;;;;;5.10;3.47;;;;;;;24.73;nan;62131.28;5031826;28;20179;-66
2023/07/18 00:46:58;;;;;;;4.47;3.25;;;;;;;24.85;nan;62485.38;5031533;28;20213;-66
2023/07/18 00:49:23;;;;;;;5.43;3.70;;;;;;;24.85;nan;62226.56;5032273;28;20257;-64
2023/07/18 00:51:49;;;;;;;3.92;3.47;;;;;;;24.63;nan;62277.84;5032203;28;20193;-65
2023/07/18 00:54:15;;;;;;;5.90;3.90;;;;;;;24.59;nan;62152.50;5031847;28;20175;-65
2023/07/18 00:56:41;;;;;;;7.45;4.03;;;;;;;24.52;nan;62121.56;5031937;28;20254;-64
2023/07/18 00:59:07;;;;;;;4.28;3.58;;;;;;;24.45;nan;62095.31;5031273;28;20202;-64
2023/07/18 01:01:34;;;;;;;6.07;3.83;;;;;;;24.42;nan;62112.22;5031631;28;20174;-63
2023/07/18 01:03:59;;;;;;;5.28;3.80;;;;;;;24.27;nan;62439.94;5031598;28;20301;-65
2023/07/18 01:06:25;;;;;;;6.13;4.00;;;;;;;24.38;nan;62160.47;5031910;28;20254;-64
2023/07/18 01:08:50;;;;;;;6.07;3.92;;;;;;;24.13;nan;62195.25;5031528;28;20179;-65
2023/07/18 01:11:16;;;;;;;4.30;3.63;;;;;;;24.37;nan;62148.88;5031596;28;20187;-66
2023/07/18 01:13:41;;;;;;;5.15;3.53;;;;;;;24.03;nan;62118.00;5031497;28;20189;-65
2023/07/18 01:16:07;;;;;;;5.70;3.90;;;;;;;24.18;nan;62077.66;5031373;28;20164;-65
2023/07/18 01:18:33;;;;;;;5.07;3.40;;;;;;;24.30;nan;62106.41;5031417;28;20199;-64
2023/07/18 01:20:59;;;;;;;6.43;3.58;;;;;;;24.08;nan;62166.03;5031483;28;20233;-65
2023/07/18 01:23:25;;;;;;;6.05;3.67;;;;;;;24.11;nan;62176.72;5031462;28;20179;-65
2023/07/18 01:25:50;;;;;;;5.03;3.78;;;;;;;24.08;nan;62071.47;5030721;28;20182;-65
2023/07/18 01:28:16;;;;;;;5.38;3.50;;;;;;;23.91;nan;62172.75;5031399;28;20210;-67
2023/07/18 01:30:41;;;;;;;6.28;3.55;;;;;;;23.98;nan;61987.56;5030153;28;20175;-65
2023/07/18 01:33:06;;;;;;;5.80;3.45;;;;;;;24.27;nan;62111.41;5032308;28;20182;-66
2023/07/18 01:35:32;;;;;;;5.75;3.33;;;;;;;23.95;nan;62205.47;5031656;28;20202;-65
2023/07/18 01:37:58;;;;;;;5.30;3.42;;;;;;;23.95;nan;62184.59;5031780;28;20556;-65
2023/07/18 01:40:24;;;;;;;5.00;3.42;;;;;;;23.95;nan;62101.06;5029820;28;20203;-65
2023/07/18 01:42:51;;;;;;;6.28;3.85;;;;;;;24.19;nan;62091.81;5031447;28;20171;-64
2023/07/18 01:45:18;;;;;;;5.90;3.40;;;;;;;24.23;nan;62137.63;5031413;28;20259;-66
2023/07/18 01:47:43;;;;;;;5.18;3.65;;;;;;;24.08;nan;62098.16;5030476;28;20274;-65
2023/07/18 01:50:10;;;;;;;4.20;3.35;;;;;;;24.05;nan;62242.97;5031416;28;20730;-65
2023/07/18 01:52:37;;;;;;;4.35;3.45;;;;;;;24.02;nan;62135.13;5031455;28;20175;-66
2023/07/18 01:55:04;;;;;;;6.20;3.50;;;;;;;23.71;nan;62163.03;5031497;28;20539;-65
2023/07/18 01:57:50;;;;;;;5.72;3.83;;;;;;;24.02;nan;62161.22;5031160;28;20175;-64
2023/07/18 02:00:19;;;;;;;6.47;4.03;;;;;;;23.95;nan;62054.06;5030871;28;20246;-65
2023/07/18 02:02:48;;;;;;;5.47;3.50;;;;;;;23.89;nan;62028.97;5031130;28;20176;-66
2023/07/18 02:05:16;;;;;;;5.20;3.90;;;;;;;23.71;nan;61928.75;5031352;28;20217;-65
2023/07/18 02:07:42;;;;;;;6.07;4.00;;;;;;;23.79;nan;62052.09;5031174;28;20175;-64
2023/07/18 02:10:07;;;;;;;4.90;3.88;;;;;;;23.77;nan;62029.50;5031040;28;20175;-64
2023/07/18 02:12:33;;;;;;;5.07;3.78;;;;;;;23.73;nan;62021.75;5034409;28;20282;-64
2023/07/18 02:14:58;;;;;;;5.68;4.38;;;;;;;23.54;nan;62105.06;5034500;28;20266;-66
2023/07/18 02:17:23;;;;;;;5.47;3.65;;;;;;;23.38;nan;61964.25;5034470;28;20180;-64
2023/07/18 02:19:49;;;;;;;5.55;3.55;;;;;;;23.63;nan;62034.44;5034741;28;20210;-66
2023/07/18 02:22:16;;;;;;;5.72;3.88;;;;;;;23.35;nan;61997.38;5034380;28;20638;-64
2023/07/18 02:24:42;;;;;;;5.78;3.90;;;;;;;23.66;nan;62040.47;5034351;28;20175;-66
2023/07/18 02:27:07;;;;;;;5.72;3.72;;;;;;;23.62;nan;62157.97;5034875;28;20175;-65
2023/07/18 02:29:33;;;;;;;4.72;3.65;;;;;;;23.46;nan;62124.09;5034604;28;20781;-65
2023/07/18 02:31:58;;;;;;;6.15;4.00;;;;;;;23.41;nan;62128.78;5034519;28;20290;-65
2023/07/18 02:34:25;;;;;;;5.82;4.13;;;;;;;23.62;nan;62043.75;5034295;28;20233;-62
2023/07/18 02:36:51;;;;;;;6.43;4.10;;;;;;;23.33;nan;62092.16;5034335;28;20593;-66
2023/07/18 02:39:16;;;;;;;4.18;3.38;;;;;;;23.63;nan;62065.75;5034017;28;20226;-63
2023/07/18 02:41:42;;;;;;;4.45;3.58;;;;;;;23.28;nan;61982.16;5034196;28;20629;-65
2023/07/18 02:44:07;;;;;;;6.43;4.20;;;;;;;23.58;nan;62096.03;5033180;28;20182;-65
2023/07/18 02:46:33;;;;;;;5.50;3.90;;;;;;;23.31;nan;62165.47;5033846;28;20286;-65
2023/07/18 02:48:59;;;;;;;5.63;3.70;;;;;;;23.44;nan;62001.81;5033414;28;20563;-65
2023/07/18 02:51:24;;;;;;;5.25;3.72;;;;;;;23.19;nan;61927.03;5033777;28;20167;-66
2023/07/18 02:53:51;;;;;;;4.60;3.60;;;;;;;23.13;nan;61987.97;5033111;28;20159;-66
2023/07/18 02:56:17;;;;;;;5.38;3.95;;;;;;;23.44;nan;62017.47;5033469;28;20240;-65
2023/07/18 02:58:43;;;;;;;6.97;3.70;;;;;;;23.40;nan;62020.75;5033125;28;20195;-65
2023/07/18 03:01:09;;;;;;;6.70;4.00;;;;;;;23.03;nan;62093.91;5033387;28;20175;-67
2023/07/18 03:03:38;;;;;;;6.60;3.92;;;;;;;23.38;nan;62000.78;5031406;28;20234;-65
2023/07/18 03:06:04;;;;;;;5.40;3.67;;;;;;;23.25;nan;62223.84;5031350;28;20203;-66
2023/07/18 03:08:32;;;;;;;4.90;3.55;;;;;;;23.37;nan;62090.91;5031201;28;20256;-64
2023/07/18 03:10:59;;;;;;;5.97;3.63;;;;;;;23.28;nan;62000.41;5031597;28;20179;-66
2023/07/18 03:13:26;;;;;;;5.70;3.80;;;;;;;22.94;nan;61995.03;5031532;28;20175;-64
2023/07/18 03:15:51;;;;;;;5.45;3.72;;;;;;;22.86;nan;62082.94;5031686;28;20246;-65
2023/07/18 03:18:17;;;;;;;5.35;3.60;;;;;;;23.40;nan;62003.03;5032933;28;20646;-65
2023/07/18 03:20:42;;;;;;;6.10;3.90;;;;;;;23.56;nan;62010.84;5032844;28;20562;-65
2023/07/18 03:23:08;;;;;;;7.88;5.05;;;;;;;24.35;nan;62206.13;5031618;28;20262;-64
2023/07/18 03:25:33;;;;;;;7.90;5.00;;;;;;;24.41;nan;62254.78;5033348;28;20265;-65
2023/07/18 03:27:58;;;;;;;8.75;5.45;;;;;;;24.70;nan;62125.81;5033483;28;20551;-64
2023/07/18 03:30:24;;;;;;;10.43;5.43;;;;;;;25.27;nan;62247.75;5033177;28;20254;-67
2023/07/18 03:32:51;;;;;;;7.43;5.10;;;;;;;25.58;nan;62350.00;5033422;28;20317;-63
2023/07/18 03:35:16;;;;;;;11.38;5.85;;;;;;;25.74;nan;62271.41;5033013;28;20207;-64
2023/07/18 03:37:42;;;;;;;8.73;4.93;;;;;;;26.52;nan;62425.38;5031526;28;20736;-64
2023/07/18 03:40:09;;;;;;;6.75;4.55;;;;;;;26.99;nan;62478.53;5033253;28;20203;-68
2023/07/18 03:42:35;;;;;;;7.35;4.97;;;;;;;27.54;nan;62511.97;5033309;28;20167;-65
2023/07/18 03:45:01;;;;;;;7.35;4.82;;;;;;;28.06;nan;62701.69;5033391;28;20171;-66
2023/07/18 03:47:27;;;;;;;6.22;4.50;;;;;;;28.55;nan;62762.56;5033000;28;20634;-66
2023/07/18 03:49:52;;;;;;;5.00;3.90;;;;;;;29.45;nan;62754.06;5033086;28;20205;-64
2023/07/18 03:52:18;;;;;;;5.70;4.10;;;;;;;29.91;nan;62953.28;5032811;28;20174;-64
2023/07/18 03:54:45;;;;;;;5.45;4.05;;;;;;;30.53;nan;63003.41;5032852;28;20183;-65
2023/07/18 03:57:10;;;;;;;6.70;4.70;;;;;;;30.66;nan;63321.88;5032929;28;20179;-64
2023/07/18 03:59:36;;;;;;;7.50;3.97;;;;;;;31.35;nan;63159.94;5032831;28;20195;-65
2023/07/18 04:02:01;;;;;;;6.82;4.07;;;;;;;31.85;nan;63291.03;5030558;28;20183;-67
2023/07/18 04:04:29;;;;;;;5.95;3.95;;;;;;;32.14;nan;63196.34;5023051;28;20243;-65
2023/07/18 04:06:54;;;;;;;6.82;4.60;;;;;;;32.52;nan;63400.97;5023132;28;20175;-65
2023/07/18 04:09:20;;;;;;;6.85;4.43;;;;;;;32.98;nan;63419.09;5024314;28;20544;-66
2023/07/18 04:11:46;;;;;;;9.90;4.43;;;;;;;32.61;nan;63530.53;5022095;28;20167;-65
2023/07/18 04:14:12;;;;;;;8.18;5.18;;;;;;;33.39;nan;63611.69;5022706;28;20257;-66
2023/07/18 04:16:37;;;;;;;9.07;5.15;;;;;;;33.42;nan;63612.50;5020866;28;20651;-66
2023/07/18 04:19:03;;;;;;;8.48;5.18;;;;;;;33.73;nan;63571.47;5013986;28;20191;-65
2023/07/18 04:21:29;;;;;;;8.55;4.95;;;;;;;34.04;nan;63636.50;5012511;28;20562;-63
2023/07/18 04:23:54;;;;;;;7.15;4.95;;;;;;;34.23;nan;63721.06;5012518;28;20183;-66
2023/07/18 04:26:20;;;;;;;7.65;5.30;;;;;;;33.98;nan;63626.91;5012606;28;20499;-66
2023/07/18 04:28:45;;;;;;;7.03;5.05;;;;;;;34.00;nan;63636.59;5016546;28;20262;-66
2023/07/18 04:31:12;;;;;;;8.85;5.57;;;;;;;34.30;nan;63689.94;5019125;28;20168;-66
2023/07/18 04:33:38;;;;;;;7.50;5.40;;;;;;;34.28;nan;63761.38;5021950;28;20197;-72
2023/07/18 04:36:04;;;;;;;7.55;5.15;;;;;;;34.54;nan;63723.00;5053569;28;20864;-71
2023/07/18 04:38:30;;;;;;;7.93;5.28;;;;;;;34.62;nan;63786.91;5020194;28;20258;-70
2023/07/18 04:40:56;;;;;;;8.65;5.57;;;;;;;34.59;nan;63813.81;5019460;28;20662;-67
2023/07/18 04:43:21;;;;;;;9.88;5.50;;;;;;;34.36;nan;63725.50;5026525;28;20604;-67
2023/07/18 04:45:47;;;;;;;6.80;4.57;;;;;;;33.97;nan;63700.06;5032050;28;20170;-62
2023/07/18 04:48:17;;;;;;;8.73;5.80;;;;;;;33.77;nan;63655.09;5030118;28;20190;-66
2023/07/18 04:50:45;;;;;;;8.88;5.50;;;;;;;33.83;nan;63768.75;5031532;28;20623;-67
2023/07/18 04:53:10;;;;;;;6.85;5.32;;;;;;;33.55;nan;63534.72;5031659;28;20688;-65
2023/07/18 04:55:37;;;;;;;9.25;5.45;;;;;;;33.42;nan;63475.22;5031302;28;20171;-64
2023/07/18 04:58:04;;;;;;;7.53;5.18;;;;;;;33.56;nan;63555.03;5031361;28;20300;-64
2023/07/18 05:00:31;;;;;;;9.95;5.70;;;;;;;33.45;nan;63539.06;5031428;28;20195;-64
2023/07/18 05:02:57;;;;;;;8.10;5.50;;;;;;;33.03;nan;63483.16;5030930;28;20218;-65
2023/07/18 05:05:25;;;;;;;7.80;5.60;;;;;;;33.11;nan;63481.81;5031301;28;20305;-64
2023/07/18 05:07:50;;;;;;;10.75;6.65;;;;;;;30.34;nan;63124.00;5031082;28;20171;-69
2023/07/18 05:10:15;;;;;;;9.13;6.15;;;;;;;;;;5031389;28;20169;-64
2023/07/18 05:12:41;;;;;;;8.40;5.57;;;;;;;32.55;nan;63452.13;5031169;28;20642;-65
2023/07/18 05:15:07;;;;;;;6.75;5.15;;;;;;;32.72;nan;63400.84;5029927;28;20232;-64
2023/07/18 05:17:33;;;;;;;11.13;6.05;;;;;;;32.61;nan;63350.47;5031027;28;20179;-63
2023/07/18 05:19:58;;;;;;;7.32;4.82;;;;;;;32.74;nan;63535.56;5031233;28;20199;-63
2023/07/18 05:22:24;;;;;;;6.85;4.72;;;;;;;32.70;nan;63409.13;5031070;28;20178;-66
2023/07/18 05:24:49;;;;;;;8.13;4.85;;;;;;;33.02;nan;63471.97;5030753;28;20205;-64
2023/07/18 05:27:14;;;;;;;8.50;5.28;;;;;;;33.29;nan;63775.66;5031021;28;20186;-66
2023/07/18 05:29:40;;;;;;;7.63;4.88;;;;;;;33.68;nan;63526.47;5030888;28;20607;-64
2023/07/18 05:32:06;;;;;;;8.35;4.72;;;;;;;34.17;nan;63682.84;5030878;28;20206;-63
2023/07/18 05:34:33;;;;;;;7.20;4.47;;;;;;;33.02;nan;63601.81;5025654;28;20284;-65
2023/07/18 05:37:00;;;;;;;7.18;5.13;;;;;;;34.56;nan;63777.88;5028055;28;20193;-64
2023/07/18 05:39:27;;;;;;;6.43;4.45;;;;;;;34.04;nan;63683.69;5031278;28;20305;-64
2023/07/18 05:41:54;;;;;;;7.53;5.40;;;;;;;33.29;nan;63516.44;5031549;28;20249;-63
2023/07/18 05:44:19;;;;;;;7.78;4.55;;;;;;;32.41;nan;63386.22;5030728;28;20270;-65
2023/07/18 05:46:46;;;;;;;8.05;4.97;;;;;;;31.94;nan;63158.59;5033002;28;20245;-64
2023/07/18 05:49:11;;;;;;;8.10;4.60;;;;;;;31.71;nan;63234.66;5035661;28;20261;-66
2023/07/18 05:51:40;;;;;;;9.57;4.75;;;;;;;31.13;nan;63280.50;5034616;28;20691;-65
2023/07/18 05:54:05;;;;;;;6.85;4.70;;;;;;;30.99;nan;63350.91;5035102;28;20167;-64
2023/07/18 05:56:34;;;;;;;7.35;4.95;;;;;;;30.54;nan;63075.81;5034760;28;20182;-65
2023/07/18 05:59:05;;;;;;;7.25;4.80;;;;;;;29.83;nan;62926.16;5034928;28;20190;-65
2023/07/18 06:01:30;;;;;;;7.88;5.43;;;;;;;30.35;nan;63135.72;5035479;28;20568;-64
2023/07/18 06:03:57;;;;;;;6.28;4.80;;;;;;;30.04;nan;62965.56;5034852;28;20218;-64
2023/07/18 06:06:23;;;;;;;7.97;4.85;;;;;;;30.12;nan;62985.88;5035413;28;20544;-65
2023/07/18 06:08:49;;;;;;;6.97;5.28;;;;;;;29.96;nan;62906.28;5034294;28;20197;-64
2023/07/18 06:11:14;;;;;;;9.80;4.88;;;;;;;30.28;nan;63090.72;5034668;28;20182;-67
2023/07/18 06:13:41;;;;;;;6.07;4.70;;;;;;;30.33;nan;62995.66;5034993;28;20182;-64
2023/07/18 06:16:06;;;;;;;8.15;5.10;;;;;;;30.63;nan;63046.00;5034481;28;20189;-64
2023/07/18 06:18:31;;;;;;;6.97;4.43;;;;;;;30.60;nan;63071.59;5034647;28;20650;-64
2023/07/18 06:20:57;;;;;;;8.85;4.88;;;;;;;30.68;nan;63080.78;5034590;28;20173;-64
2023/07/18 06:23:22;;;;;;;9.38;5.00;;;;;;;30.77;nan;63062.09;5034705;28;20181;-65
2023/07/18 06:25:48;;;;;;;7.45;5.07;;;;;;;30.74;nan;63016.41;5034838;28;20253;-64
2023/07/18 06:28:13;;;;;;;7.55;4.90;;;;;;;31.11;nan;63100.66;5034246;28;20374;-64
2023/07/18 06:30:38;;;;;;;7.78;5.10;;;;;;;31.23;nan;63143.50;5034409;28;20175;-64
2023/07/18 06:33:04;;;;;;;8.20;5.38;;;;;;;31.06;nan;63127.16;5034443;28;20197;-65
2023/07/18 06:35:30;;;;;;;6.45;4.50;;;;;;;31.18;nan;63169.44;5034537;28;20630;-64
2023/07/18 06:37:55;;;;;;;6.57;4.30;;;;;;;30.21;nan;63103.78;5034237;28;20175;-65
2023/07/18 06:40:20;;;;;;;6.05;4.78;;;;;;;30.20;nan;62986.56;5033979;28;20704;-65
2023/07/18 06:42:46;;;;;;;6.60;4.32;;;;;;;30.65;nan;63045.66;5034600;28;20253;-66
2023/07/18 06:45:12;;;;;;;6.97;4.60;;;;;;;30.85;nan;63039.03;5034183;28;20729;-67
2023/07/18 06:47:37;;;;;;;6.35;4.20;;;;;;;31.23;nan;63235.97;5034031;28;20178;-65
2023/07/18 06:50:03;;;;;;;6.15;4.30;;;;;;;30.91;nan;63080.84;5034554;28;20167;-66
2023/07/18 06:52:29;;;;;;;7.40;4.75;;;;;;;31.16;nan;63126.97;5034075;28;20565;-65
2023/07/18 06:54:55;;;;;;;7.30;4.75;;;;;;;31.08;nan;63182.28;5033343;28;20190;-63
2023/07/18 06:57:20;;;;;;;8.00;4.55;;;;;;;31.13;nan;63116.16;5033746;28;20178;-65
2023/07/18 06:59:45;;;;;;;7.03;4.88;;;;;;;31.17;nan;63033.56;5033686;28;20194;-65
2023/07/18 07:02:12;;;;;;;7.72;4.53;;;;;;;31.29;nan;63171.56;5034619;28;20630;-64
2023/07/18 07:04:39;;;;;;;7.65;4.90;;;;;;;31.39;nan;63159.28;5034062;28;20309;-65
2023/07/18 07:07:05;;;;;;;6.90;4.60;;;;;;;31.27;nan;63076.78;5033656;28;20175;-64
2023/07/18 07:09:31;;;;;;;6.72;4.90;;;;;;;31.71;nan;63197.63;5033878;28;20179;-64
2023/07/18 07:11:56;;;;;;;6.05;4.55;;;;;;;31.80;nan;63287.31;5033708;28;20660;-66
2023/07/18 07:14:22;;;;;;;7.65;5.20;;;;;;;31.74;nan;63195.78;5033406;28;20174;-64
2023/07/18 07:16:47;;;;;;;6.93;5.22;;;;;;;31.87;nan;63282.16;5032774;28;20174;-64
2023/07/18 07:19:13;;;;;;;6.68;5.00;;;;;;;32.14;nan;63485.28;5033470;28;20206;-66
2023/07/18 07:21:39;;;;;;;6.95;4.50;;;;;;;32.33;nan;63430.50;5033625;28;20243;-64
2023/07/18 07:24:05;;;;;;;6.95;5.05;;;;;;;32.24;nan;63301.03;5033488;28;20700;-64
2023/07/18 07:26:30;;;;;;;6.63;4.75;;;;;;;32.36;nan;63335.47;5033497;28;20174;-64
2023/07/18 07:28:56;;;;;;;7.20;5.05;;;;;;;32.43;nan;63365.28;5032969;28;20182;-64
2023/07/18 07:31:22;;;;;;;7.57;5.22;;;;;;;32.57;nan;63447.06;5033308;28;20202;-65
2023/07/18 07:33:47;;;;;;;6.72;4.80;;;;;;;32.62;nan;63454.91;5033350;28;20213;-64
2023/07/18 07:36:13;;;;;;;7.90;5.18;;;;;;;32.68;nan;63433.31;5033271;28;20201;-65
2023/07/18 07:38:38;;;;;;;7.25;5.05;;;;;;;32.64;nan;63473.13;5033153;28;20171;-65
2023/07/18 07:41:05;;;;;;;9.20;5.30;;;;;;;33.03;nan;63522.91;5031737;28;20689;-65
2023/07/18 07:43:30;;;;;;;6.97;4.88;;;;;;;33.19;nan;63496.38;5032997;28;20175;-63
2023/07/18 07:45:56;;;;;;;7.45;5.22;;;;;;;33.29;nan;63550.91;5033482;28;20641;-64
2023/07/18 07:48:21;;;;;;;5.95;4.78;;;;;;;33.35;nan;63726.34;5033058;28;20207;-65
2023/07/18 07:50:48;;;;;;;8.65;5.35;;;;;;;33.59;nan;63587.66;5033108;28;20202;-64
2023/07/18 07:53:14;;;;;;;8.77;5.68;;;;;;;33.19;nan;63496.94;5032847;28;20305;-64
2023/07/18 07:55:39;;;;;;;8.00;5.50;;;;;;;33.68;nan;63574.22;5033006;28;20166;-64
2023/07/18 07:58:05;;;;;;;7.80;5.18;;;;;;;33.50;nan;63499.78;5032709;28;20171;-65
2023/07/18 08:00:30;;;;;;;6.80;5.28;;;;;;;33.82;nan;63595.13;5031255;28;20232;-64
2023/07/18 08:02:56;;;;;;;7.40;5.68;;;;;;;33.48;nan;63508.09;5032682;28;20226;-64
2023/07/18 08:05:21;;;;;;;8.32;5.60;;;;;;;33.55;nan;63563.91;5032574;28;20562;-64
2023/07/18 08:07:48;;;;;;;9.48;5.82;;;;;;;33.47;nan;63459.78;5032701;28;20182;-64
2023/07/18 08:10:14;;;;;;;8.52;5.45;;;;;;;33.80;nan;63648.53;5032270;28;20650;-65
2023/07/18 08:12:40;;;;;;;10.15;6.35;;;;;;;33.86;nan;63642.22;5032583;28;20178;-67
2023/07/18 08:15:06;;;;;;;10.88;6.85;;;;;;;33.95;nan;63594.25;5032705;28;20177;-64
2023/07/18 08:17:32;;;;;;;10.52;6.60;;;;;;;33.84;nan;63602.75;5032711;28;20738;-64
2023/07/18 08:19:57;;;;;;;10.68;6.13;;;;;;;33.82;nan;63631.69;5032526;28;20285;-64
2023/07/18 08:22:23;;;;;;;9.10;6.65;;;;;;;33.78;nan;63597.88;5032684;28;20174;-64
2023/07/18 08:24:48;;;;;;;10.45;6.63;;;;;;;33.86;nan;63790.22;5032466;28;20174;-64
2023/07/18 08:27:13;;;;;;;10.48;6.72;;;;;;;33.95;nan;63604.84;5031972;28;20186;-64
2023/07/18 08:29:41;;;;;;;9.00;6.70;;;;;;;34.34;nan;63755.03;5032601;28;20289;-65
2023/07/18 08:32:07;;;;;;;9.82;6.88;;;;;;;34.31;nan;63717.06;5032582;28;20171;-65
2023/07/18 08:34:35;;;;;;;9.38;6.53;;;;;;;34.49;nan;63783.06;5030874;28;20191;-64
2023/07/18 08:37:01;;;;;;;9.65;6.75;;;;;;;34.38;nan;63744.31;5032011;28;20684;-64
2023/07/18 08:39:26;;;;;;;9.93;6.45;;;;;;;34.26;nan;63724.53;5031841;28;20202;-64
2023/07/18 08:41:52;;;;;;;8.77;6.40;;;;;;;34.49;nan;63743.81;5031623;28;20181;-65
2023/07/18 08:44:19;;;;;;;9.20;6.97;;;;;;;34.34;nan;63731.16;5031872;28;20171;-64
2023/07/18 08:46:48;;;;;;;10.65;7.20;;;;;;;34.55;nan;63805.94;5031940;28;20209;-65
2023/07/18 08:49:16;;;;;;;9.73;7.35;;;;;;;35.07;nan;63825.22;5031948;28;20174;-64
2023/07/18 08:51:42;;;;;;;10.57;6.57;;;;;;;34.80;nan;63765.88;5031958;28;20656;-63
2023/07/18 08:54:08;;;;;;;9.85;6.60;;;;;;;34.71;nan;63728.28;5031600;28;20636;-65
2023/07/18 08:56:33;;;;;;;10.02;6.95;;;;;;;34.44;nan;63814.44;5031107;28;20179;-65
2023/07/18 08:59:00;;;;;;;11.38;7.22;;;;;;;35.03;nan;63851.00;5031553;28;20298;-63
2023/07/18 09:01:26;;;;;;;11.02;7.50;;;;;;;35.12;nan;63866.16;5031515;28;20205;-66
2023/07/18 09:03:51;;;;;;;11.52;7.50;;;;;;;35.07;nan;63846.50;5031287;28;20246;-62
2023/07/18 09:06:18;;;;;;;10.18;7.05;;;;;;;35.55;nan;63965.47;5024360;28;20552;-63
2023/07/18 09:08:44;;;;;;;12.07;8.25;;;;;;;;;;5011661;28;20171;-64
2023/07/18 09:11:14;;;;;;;10.75;7.10;;;;;;;35.42;nan;63825.94;5011320;28;20172;-64
2023/07/18 09:13:41;;;;;;;12.23;7.22;;;;;;;35.42;nan;63849.88;5020849;28;20189;-67
2023/07/18 09:16:17;;;;;;;11.27;7.45;;;;;;;35.78;nan;63947.53;5030545;28;20182;-63
2023/07/18 09:18:54;;;;;;;10.30;7.70;;;;;;;35.78;nan;64101.31;5030712;28;20295;-64
2023/07/18 09:21:21;;;;;;;9.77;7.35;;;;;;;35.95;nan;64024.66;5030551;28;20614;-65
2023/07/18 09:23:48;;;;;;;10.32;7.13;;;;;;;35.70;nan;64050.00;5034708;28;20626;-65
2023/07/18 09:26:16;;;;;;;11.52;7.45;;;;;;;36.05;nan;64081.56;5035280;28;20324;-65
2023/07/18 09:28:41;;;;;;;10.43;7.47;;;;;;;36.18;nan;64024.78;5034631;28;20190;-63
2023/07/18 09:31:21;;;;;;;10.40;7.22;;;;;;;36.37;nan;64100.13;5035163;28;20166;-65
2023/07/18 09:33:48;;;;;;;11.55;8.10;;;;;;;36.28;nan;64329.41;5034480;28;20183;-64
2023/07/18 09:36:18;;;;;;;10.55;7.47;;;;;;;36.12;nan;64049.72;5030800;28;20722;-62
2023/07/18 09:38:48;;;;;;;10.45;7.57;;;;;;;36.21;nan;64046.91;5034311;28;20197;-66
2023/07/18 09:41:19;;;;;;;10.95;7.60;;;;;;;36.40;nan;64066.31;5030968;28;20182;-66
2023/07/18 09:43:45;;;;;;;9.38;7.35;;;;;;;36.27;nan;64078.44;5034284;28;20178;-67
2023/07/18 09:46:13;;;;;;;12.63;7.68;;;;;;;36.17;nan;64138.72;5034957;28;20257;-65
2023/07/18 09:48:44;;;;;;;10.82;7.47;;;;;;;36.52;nan;64196.94;5034071;28;20700;-66
2023/07/18 09:51:20;;;;;;;11.57;8.30;;;;;;;36.68;nan;64156.94;5032742;28;20191;-62
2023/07/18 09:53:47;;;;;;;14.20;7.80;;;;;;;36.58;nan;64127.22;5034238;28;20178;-63
2023/07/18 09:56:14;;;;;;;11.98;7.70;;;;;;;37.11;nan;64425.16;5030819;28;20174;-62
2023/07/18 09:58:42;;;;;;;11.18;7.78;;;;;;;36.54;nan;64117.22;5034243;28;20221;-62
2023/07/18 10:01:11;;;;;;;10.68;7.55;;;;;;;36.54;nan;64161.94;5033971;28;20187;-63
2023/07/18 10:03:38;;;;;;;12.38;8.18;;;;;;;36.94;nan;64197.28;5033877;28;20673;-64
2023/07/18 10:06:12;;;;;;;11.82;7.88;;;;;;;36.81;nan;64200.81;5034443;28;20237;-63
2023/07/18 10:08:40;;;;;;;12.50;8.20;;;;;;;36.87;nan;64261.13;5033656;28;20175;-63
2023/07/18 10:11:08;;;;;;;15.90;9.52;;;;;;;36.83;nan;64158.41;5034061;28;20272;-63
2023/07/18 10:13:56;;;;;;;10.40;7.50;;;;;;;36.96;nan;64260.94;5033663;28;20185;-64
2023/07/18 10:16:26;;;;;;;11.30;8.32;;;;;;;37.18;nan;64289.25;5062625;28;20290;-65
2023/07/18 10:18:52;;;;;;;13.70;9.02;;;;;;;37.20;nan;64347.03;5033694;28;20191;-63
2023/07/18 10:21:28;;;;;;;13.00;9.27;;;;;;;37.34;nan;64403.97;5034044;28;20193;-65
2023/07/18 10:23:54;;;;;;;11.85;9.02;;;;;;;37.50;nan;64409.28;5032860;28;20269;-65
2023/07/18 10:26:40;;;;;;;12.43;8.75;;;;;;;37.89;nan;64509.75;5033948;28;20730;-64
2023/07/18 10:29:05;;;;;;;10.82;8.05;;;;;;;38.15;nan;64694.53;5033187;28;20687;-62
2023/07/18 10:31:35;;;;;;;11.35;8.00;;;;;;;38.23;nan;64474.09;5033298;28;20187;-67
2023/07/18 10:34:09;;;;;;;10.75;7.60;;;;;;;38.36;nan;64540.63;5032368;28;20175;-63
2023/07/18 10:36:36;;;;;;;10.00;7.22;;;;;;;38.26;nan;64464.22;5033936;28;20228;-64
2023/07/18 10:39:11;;;;;;;11.68;8.02;;;;;;;38.21;nan;64424.22;5033217;28;20678;-63
2023/07/18 10:41:37;;;;;;;10.85;7.22;;;;;;;37.57;nan;64355.50;5033714;28;20178;-65
2023/07/18 10:44:02;;;;;;;10.60;8.05;;;;;;;36.99;nan;64264.44;5029004;28;20669;-63
2023/07/18 10:46:38;;;;;;;12.15;8.88;;;;;;;37.56;nan;64378.34;5033315;28;20187;-63
2023/07/18 10:49:04;;;;;;;11.25;7.90;;;;;;;37.80;nan;64323.56;5033697;28;20171;-63
2023/07/18 10:51:30;;;;;;;11.55;7.93;;;;;;;38.05;nan;64461.09;5033896;28;20262;-65
2023/07/18 10:53:58;;;;;;;9.90;7.07;;;;;;;38.08;nan;64467.84;5032986;28;20642;-65
2023/07/18 10:56:23;;;;;;;10.80;8.25;;;;;;;38.33;nan;64502.38;5033472;28;20664;-64
2023/07/18 10:58:51;;;;;;;9.23;6.40;;;;;;;38.03;nan;64459.34;5032912;28;20225;-65
2023/07/18 11:01:17;;;;;;;12.48;7.38;;;;;;;38.32;nan;64466.47;5033197;28;20183;-65
2023/07/18 11:03:47;;;;;;;8.85;6.60;;;;;;;38.69;nan;64559.31;5032520;28;20244;-62
2023/07/18 11:06:15;;;;;;;8.65;6.65;;;;;;;37.69;nan;64486.97;5033562;28;20587;-64
2023/07/18 11:08:45;;;;;;;8.93;5.93;;;;;;;37.60;nan;64348.31;5032529;28;20179;-64
2023/07/18 11:11:11;;;;;;;7.60;6.00;;;;;;;37.01;nan;64162.75;5033200;28;20270;-65
2023/07/18 11:13:39;;;;;;;8.85;6.28;;;;;;;36.51;nan;64079.09;5032823;28;20186;-66
2023/07/18 11:16:10;;;;;;;10.63;6.50;;;;;;;36.59;nan;64221.06;5033255;28;20185;-62
2023/07/18 11:18:42;;;;;;;8.85;6.43;;;;;;;37.06;nan;64248.59;5032779;28;20255;-63
2023/07/18 11:21:09;;;;;;;9.48;6.78;;;;;;;35.59;nan;64159.59;5033113;28;20171;-63
2023/07/18 11:23:35;;;;;;;8.32;6.20;;;;;;;37.69;nan;64355.56;5032208;28;20193;-67
2023/07/18 11:26:15;;;;;;;9.63;6.63;;;;;;;37.35;nan;64287.13;5033145;28;20305;-62
2023/07/18 11:28:43;;;;;;;9.57;6.88;;;;;;;37.35;nan;64330.41;5032325;28;20190;-64
2023/07/18 11:31:29;;;;;;;9.63;7.38;;;;;;;37.57;nan;64342.75;5032946;28;20179;-64
2023/07/18 11:33:57;;;;;;;10.23;6.40;;;;;;;37.14;nan;64212.56;5032198;28;20197;-64
2023/07/18 11:36:35;;;;;;;13.15;6.53;;;;;;;34.59;nan;63831.81;5032790;28;20183;-64
2023/07/18 11:39:01;;;;;;;7.80;5.88;;;;;;;36.36;nan;64157.56;5032318;28;20256;-64
2023/07/18 11:41:40;;;;;;;9.23;6.20;;;;;;;37.06;nan;64462.56;5032962;28;20210;-64
2023/07/18 11:44:08;;;;;;;11.43;6.47;;;;;;;37.56;nan;64295.59;5031301;28;20654;-66
2023/07/18 11:46:44;;;;;;;11.82;6.63;;;;;;;37.53;nan;64343.41;5032824;28;20662;-63